Time;durP1;ratioP1;P1;durP2;ratioP2;P2;SDS_P1;SDS_P2;PMS_P1;PMS_P2;Temp;Humidity;BMP_temperature;BMP_pressure;BME280_temperature;BME280_humidity;BME280_pressure;Samples;Min_cycle;Max_cycle;Signal;HPM_P1;HPM_P2
2023/10/25 00:00:19;;;;;;;1.60;1.50;;;13.00;99.90;;;;;;5016130;28;20196;-65
2023/10/25 00:02:46;;;;;;;1.60;1.50;;;13.00;99.90;;;;;;5026822;28;20298;-65
2023/10/25 00:05:15;;;;;;;1.80;1.70;;;13.00;99.90;;;;;;5029083;28;20290;-65
2023/10/25 00:07:42;;;;;;;1.47;1.37;;;13.00;99.90;;;;;;5027149;28;20193;-64
2023/10/25 00:10:10;;;;;;;1.60;1.50;;;13.00;99.90;;;;;;5029593;28;20274;-65
2023/10/25 00:12:37;;;;;;;1.97;1.40;;;13.00;99.90;;;;;;5032804;28;20193;-65
2023/10/25 00:15:06;;;;;;;1.80;1.70;;;13.00;99.90;;;;;;5027155;28;20224;-64
2023/10/25 00:17:33;;;;;;;1.57;1.47;;;13.00;99.90;;;;;;5035631;28;20263;-66
2023/10/25 00:20:02;;;;;;;1.50;1.40;;;13.00;99.90;;;;;;5031585;28;20194;-64
2023/10/25 00:22:30;;;;;;;1.57;1.47;;;13.00;99.90;;;;;;5029624;28;20242;-64
2023/10/25 00:24:57;;;;;;;1.73;1.63;;;13.00;99.90;;;;;;5028785;28;20675;-64
2023/10/25 00:27:25;;;;;;;2.13;1.93;;;13.00;99.90;;;;;;5032195;28;20683;-64
2023/10/25 00:29:52;;;;;;;1.73;1.63;;;13.00;99.90;;;;;;5028301;28;20189;-64
2023/10/25 00:32:19;;;;;;;1.60;1.50;;;13.00;99.90;;;;;;5029030;28;20190;-64
2023/10/25 00:34:46;;;;;;;1.90;1.80;;;13.00;99.90;;;;;;5030786;28;20232;-65
2023/10/25 00:37:13;;;;;;;1.80;1.70;;;13.00;99.90;;;;;;5029465;28;20228;-64
2023/10/25 00:39:41;;;;;;;1.90;1.80;;;12.90;99.90;;;;;;5012881;28;20348;-64
2023/10/25 00:42:08;;;;;;;2.47;1.90;;;12.90;99.90;;;;;;5031755;28;20506;-64
2023/10/25 00:44:35;;;;;;;2.13;2.03;;;12.90;99.90;;;;;;5011002;28;20582;-65
2023/10/25 00:47:03;;;;;;;2.13;1.93;;;12.90;99.90;;;;;;5024779;28;20636;-65
2023/10/25 00:49:30;;;;;;;3.10;2.80;;;12.90;99.90;;;;;;5011911;28;20208;-65
2023/10/25 00:51:57;;;;;;;6.27;4.70;;;12.90;99.90;;;;;;5031313;28;20268;-65
2023/10/25 00:54:25;;;;;;;5.80;4.57;;;12.90;99.90;;;;;;5008647;28;20241;-64
2023/10/25 00:56:55;;;;;;;4.87;3.77;;;12.80;99.90;;;;;;5031758;28;20591;-64
2023/10/25 00:59:23;;;;;;;3.57;3.27;;;12.80;99.90;;;;;;5026984;28;20200;-65
2023/10/25 01:01:51;;;;;;;3.23;2.93;;;12.80;99.90;;;;;;5010030;28;20305;-64
2023/10/25 01:04:18;;;;;;;2.67;2.47;;;12.80;99.90;;;;;;5011280;28;20783;-64
2023/10/25 01:06:45;;;;;;;2.53;2.33;;;12.80;99.90;;;;;;5031753;28;20201;-65
2023/10/25 01:09:12;;;;;;;2.80;2.60;;;12.70;99.90;;;;;;5008429;28;20234;-65
2023/10/25 01:11:41;;;;;;;2.60;2.30;;;12.80;99.90;;;;;;5030566;28;20193;-64
2023/10/25 01:14:11;;;;;;;2.10;2.00;;;12.90;99.90;;;;;;5029396;28;20197;-65
2023/10/25 01:16:38;;;;;;;2.67;2.00;;;12.90;99.90;;;;;;5010223;28;20380;-65
2023/10/25 01:19:05;;;;;;;1.90;1.80;;;12.90;99.90;;;;;;5028774;28;20223;-65
2023/10/25 01:21:32;;;;;;;2.20;2.00;;;12.90;99.90;;;;;;5031004;28;20288;-64
2023/10/25 01:24:01;;;;;;;2.70;2.17;;;12.90;99.90;;;;;;5009137;28;20200;-65
2023/10/25 01:26:28;;;;;;;3.23;2.33;;;12.90;99.90;;;;;;5021478;28;20200;-64
2023/10/25 01:28:55;;;;;;;2.40;2.20;;;12.90;99.90;;;;;;5029598;28;20197;-65
2023/10/25 01:31:22;;;;;;;2.27;2.07;;;12.90;99.90;;;;;;5029310;28;20272;-65
2023/10/25 01:33:51;;;;;;;2.70;2.50;;;12.90;99.90;;;;;;5026007;28;20207;-64
2023/10/25 01:36:18;;;;;;;2.70;2.50;;;12.90;99.90;;;;;;5025544;28;20197;-65
2023/10/25 01:38:45;;;;;;;2.63;2.43;;;12.90;99.90;;;;;;5029908;28;20216;-65
2023/10/25 01:41:16;;;;;;;2.90;2.60;;;12.90;99.90;;;;;;5007314;28;20200;-65
2023/10/25 01:43:44;;;;;;;2.90;2.60;;;12.80;99.90;;;;;;5010113;28;20679;-64
2023/10/25 01:46:11;;;;;;;2.70;2.50;;;12.80;99.90;;;;;;5029029;28;20691;-65
2023/10/25 01:48:38;;;;;;;3.07;2.77;;;12.80;99.90;;;;;;5025635;28;20260;-65
2023/10/25 01:51:06;;;;;;;3.43;2.80;;;12.80;99.90;;;;;;5026363;28;20506;-65
2023/10/25 01:53:34;;;;;;;3.03;2.70;;;12.80;99.90;;;;;;5029193;28;20194;-64
2023/10/25 01:56:02;;;;;;;2.73;2.47;;;12.80;99.90;;;;;;5009186;28;20552;-64
2023/10/25 01:58:32;;;;;;;2.37;2.20;;;12.80;99.90;;;;;;5010500;28;20264;-65
2023/10/25 02:01:03;;;;;;;3.07;2.87;;;12.80;99.90;;;;;;5011015;28;20692;-65
2023/10/25 02:03:30;;;;;;;3.47;3.17;;;12.80;99.90;;;;;;5006723;28;20512;-65
2023/10/25 02:05:58;;;;;;;3.73;3.30;;;12.80;99.90;;;;;;5029649;28;20256;-65
2023/10/25 02:08:25;;;;;;;4.63;3.43;;;12.80;99.90;;;;;;5029898;28;20231;-64
2023/10/25 02:10:52;;;;;;;3.33;3.03;;;12.80;99.90;;;;;;5008471;28;20235;-63
2023/10/25 02:13:19;;;;;;;3.50;3.20;;;12.80;99.90;;;;;;5028304;28;20205;-65
2023/10/25 02:15:48;;;;;;;3.43;3.00;;;12.80;99.90;;;;;;5010258;28;20212;-65
2023/10/25 02:18:15;;;;;;;5.90;4.67;;;12.80;99.90;;;;;;5020972;28;20204;-65
2023/10/25 02:20:42;;;;;;;5.30;4.30;;;12.80;99.90;;;;;;5027681;28;20200;-65
2023/10/25 02:23:09;;;;;;;4.70;3.60;;;12.80;99.90;;;;;;5028689;28;20603;-65
2023/10/25 02:25:36;;;;;;;3.50;3.17;;;12.80;99.90;;;;;;5024692;28;20211;-64
2023/10/25 02:28:03;;;;;;;3.37;3.07;;;12.80;99.90;;;;;;5026955;28;20243;-64
2023/10/25 02:30:32;;;;;;;3.70;3.40;;;12.80;99.90;;;;;;5026576;28;20576;-65
2023/10/25 02:33:00;;;;;;;3.27;2.97;;;12.80;99.90;;;;;;5029515;28;20268;-64
2023/10/25 02:35:27;;;;;;;3.70;3.40;;;12.80;99.90;;;;;;5026956;28;20205;-65
2023/10/25 02:37:54;;;;;;;3.87;3.03;;;12.80;99.90;;;;;;5029487;28;20255;-64
2023/10/25 02:40:21;;;;;;;3.43;3.13;;;12.80;99.90;;;;;;5027232;28;20812;-64
2023/10/25 02:42:48;;;;;;;5.17;4.00;;;12.80;99.90;;;;;;5024553;28;20275;-65
2023/10/25 02:45:16;;;;;;;3.70;3.40;;;12.80;99.90;;;;;;5027200;28;20204;-64
2023/10/25 02:47:43;;;;;;;3.57;3.27;;;12.80;99.90;;;;;;5028885;28;20200;-64
2023/10/25 02:50:12;;;;;;;4.37;3.50;;;12.80;99.90;;;;;;5025668;28;20209;-64
2023/10/25 02:52:41;;;;;;;4.07;2.90;;;12.80;99.90;;;;;;5027660;28;20193;-65
2023/10/25 02:55:09;;;;;;;3.93;3.30;;;12.90;99.90;;;;;;5025933;28;20213;-65
2023/10/25 02:57:36;;;;;;;3.57;3.27;;;12.80;99.90;;;;;;5026143;28;20219;-64
2023/10/25 03:00:06;;;;;;;2.87;2.67;;;12.80;99.90;;;;;;5000599;28;20202;-65
2023/10/25 03:02:33;;;;;;;3.00;2.80;;;12.90;99.90;;;;;;5027219;28;20281;-64
2023/10/25 03:05:00;;;;;;;3.67;3.10;;;12.90;99.90;;;;;;5026051;28;20236;-65
2023/10/25 03:07:28;;;;;;;3.23;2.93;;;12.90;99.90;;;;;;5010534;28;20212;-65
2023/10/25 03:09:56;;;;;;;3.40;2.63;;;12.90;99.90;;;;;;5026460;28;20714;-65
2023/10/25 03:12:23;;;;;;;2.80;2.60;;;12.90;99.90;;;;;;5025874;28;20221;-65
2023/10/25 03:14:50;;;;;;;4.57;3.23;;;12.80;99.90;;;;;;5008554;28;20311;-64
2023/10/25 03:17:22;;;;;;;3.90;3.33;;;12.80;99.90;;;;;;5028919;28;20197;-64
2023/10/25 03:19:49;;;;;;;3.20;2.90;;;12.80;99.90;;;;;;5022409;28;20201;-64
2023/10/25 03:22:16;;;;;;;3.37;2.73;;;12.90;99.90;;;;;;5010472;28;20536;-65
2023/10/25 03:24:46;;;;;;;3.57;3.27;;;12.90;99.90;;;;;;5028596;28;20626;-65
2023/10/25 03:27:14;;;;;;;3.07;2.77;;;12.90;99.90;;;;;;5022821;28;20240;-65
2023/10/25 03:29:41;;;;;;;2.87;2.67;;;12.90;99.90;;;;;;5025652;28;20283;-64
2023/10/25 03:32:08;;;;;;;3.50;3.20;;;12.90;99.90;;;;;;5009733;28;20547;-65
2023/10/25 03:34:36;;;;;;;5.00;3.73;;;12.90;99.90;;;;;;5006248;28;20209;-65
2023/10/25 03:37:03;;;;;;;4.63;4.10;;;12.90;99.90;;;;;;5010721;28;20263;-65
2023/10/25 03:39:30;;;;;;;4.83;4.13;;;12.90;99.90;;;;;;5028319;28;20257;-64
2023/10/25 03:42:01;;;;;;;5.67;4.53;;;12.90;99.90;;;;;;5022807;28;20568;-64
2023/10/25 03:44:30;;;;;;;4.40;4.00;;;12.90;99.90;;;;;;5006785;28;20623;-65
2023/10/25 03:46:57;;;;;;;5.17;4.23;;;13.80;99.90;;;;;;5029181;28;20201;-65
2023/10/25 03:49:25;;;;;;;4.20;3.80;;;12.90;99.90;;;;;;5005993;28;20212;-65
2023/10/25 03:51:52;;;;;;;4.00;3.60;;;12.90;99.90;;;;;;5027961;28;20487;-65
2023/10/25 03:54:19;;;;;;;4.90;3.90;;;12.90;99.90;;;;;;5027860;28;20294;-65
2023/10/25 03:56:48;;;;;;;5.07;3.70;;;12.90;99.90;;;;;;5027101;28;20600;-65
2023/10/25 03:59:17;;;;;;;5.37;4.07;;;12.90;99.90;;;;;;5024746;28;20342;-65
2023/10/25 04:01:44;;;;;;;4.30;3.50;;;12.90;99.90;;;;;;5008709;28;20636;-65
2023/10/25 04:04:11;;;;;;;3.90;3.50;;;12.80;99.90;;;;;;5003141;28;20622;-65
2023/10/25 04:06:39;;;;;;;6.43;4.90;;;12.90;99.90;;;;;;5016204;28;20202;-64
2023/10/25 04:09:08;;;;;;;4.73;3.90;;;12.90;99.90;;;;;;5027647;28;20197;-65
2023/10/25 04:11:35;;;;;;;4.87;4.10;;;12.90;99.90;;;;;;5031532;28;20192;-64
2023/10/25 04:14:02;;;;;;;4.43;3.70;;;12.90;99.90;;;;;;5037327;28;20228;-64
2023/10/25 04:16:31;;;;;;;3.43;3.13;;;12.90;99.90;;;;;;5005261;28;20211;-64
2023/10/25 04:18:58;;;;;;;4.83;3.77;;;12.90;99.90;;;;;;5028516;28;20220;-64
2023/10/25 04:21:25;;;;;;;4.10;3.50;;;12.90;99.90;;;;;;5031298;28;20652;-65
2023/10/25 04:23:52;;;;;;;3.30;3.00;;;12.80;99.90;;;;;;5031308;28;20340;-64
2023/10/25 04:26:19;;;;;;;4.67;3.77;;;12.80;99.90;;;;;;5030484;28;20230;-65
2023/10/25 04:28:46;;;;;;;3.10;2.80;;;12.80;99.90;;;;;;5010897;28;20212;-66
2023/10/25 04:31:13;;;;;;;3.23;2.90;;;12.80;99.90;;;;;;5016120;28;20695;-65
2023/10/25 04:33:41;;;;;;;3.30;3.00;;;12.80;99.90;;;;;;5011429;28;20302;-64
2023/10/25 04:36:09;;;;;;;2.60;2.40;;;12.80;99.90;;;;;;5025514;28;20199;-65
2023/10/25 04:38:36;;;;;;;5.80;4.10;;;12.80;99.90;;;;;;5013232;28;20228;-64
2023/10/25 04:41:03;;;;;;;3.40;3.10;;;12.80;99.90;;;;;;5027458;28;20574;-64
2023/10/25 04:43:30;;;;;;;3.73;3.43;;;12.80;99.90;;;;;;5029409;28;20210;-65
2023/10/25 04:45:57;;;;;;;2.87;2.60;;;12.90;99.90;;;;;;5030445;28;20604;-64
2023/10/25 04:48:24;;;;;;;2.93;2.70;;;12.80;99.90;;;;;;5026573;28;20258;-64
2023/10/25 04:50:53;;;;;;;2.97;2.20;;;12.80;99.90;;;;;;5031377;28;20279;-64
2023/10/25 04:53:20;;;;;;;2.30;2.20;;;12.80;99.90;;;;;;5027642;28;20190;-65
2023/10/25 04:55:47;;;;;;;3.00;2.70;;;12.80;99.90;;;;;;5010946;28;20207;-65
2023/10/25 04:58:14;;;;;;;2.23;2.03;;;12.80;99.90;;;;;;5030331;28;20286;-65
2023/10/25 05:00:43;;;;;;;1.67;1.57;;;12.80;99.90;;;;;;5028413;28;20204;-64
2023/10/25 05:03:11;;;;;;;2.17;1.97;;;12.80;99.90;;;;;;5017811;28;20213;-64
2023/10/25 05:05:38;;;;;;;2.90;1.87;;;12.80;99.90;;;;;;5008556;28;20223;-64
2023/10/25 05:08:09;;;;;;;2.27;2.07;;;12.80;99.90;;;;;;5010178;28;20208;-65
2023/10/25 05:10:36;;;;;;;3.10;2.90;;;12.80;99.90;;;;;;5006282;28;20283;-65
2023/10/25 05:13:04;;;;;;;2.53;2.30;;;12.80;99.90;;;;;;5000413;28;20201;-64
2023/10/25 05:15:35;;;;;;;2.33;2.10;;;12.80;99.90;;;;;;5009364;28;20256;-65
2023/10/25 05:18:02;;;;;;;2.43;2.20;;;12.80;99.90;;;;;;5002650;28;20248;-65
2023/10/25 05:20:30;;;;;;;2.57;2.37;;;12.80;99.90;;;;;;5011230;28;20194;-65
2023/10/25 05:23:03;;;;;;;2.80;2.60;;;12.80;99.90;;;;;;5007585;28;20202;-65
2023/10/25 05:25:32;;;;;;;4.80;3.43;;;12.80;99.90;;;;;;5008151;28;20197;-64
2023/10/25 05:28:01;;;;;;;2.87;2.67;;;12.80;99.90;;;;;;5010587;28;20194;-64
2023/10/25 05:30:29;;;;;;;2.63;2.43;;;12.80;99.90;;;;;;5005494;28;20272;-64
2023/10/25 05:33:00;;;;;;;3.07;2.77;;;12.90;99.90;;;;;;5010387;28;20430;-65
2023/10/25 05:35:31;;;;;;;2.57;2.37;;;12.90;99.90;;;;;;5009117;28;20311;-65
2023/10/25 05:37:59;;;;;;;3.27;2.90;;;12.90;99.90;;;;;;5002644;28;20668;-64
2023/10/25 05:40:26;;;;;;;2.53;2.33;;;12.80;99.90;;;;;;5010039;28;20243;-64
2023/10/25 05:42:57;;;;;;;2.20;2.00;;;12.80;99.90;;;;;;5010187;28;20617;-65
2023/10/25 05:45:24;;;;;;;3.10;2.37;;;12.80;99.90;;;;;;5006092;28;20197;-65
2023/10/25 05:47:52;;;;;;;3.30;2.77;;;12.80;99.90;;;;;;5010481;28;20270;-65
2023/10/25 05:50:20;;;;;;;2.80;2.50;;;12.80;99.90;;;;;;5010449;28;20263;-65
2023/10/25 05:52:48;;;;;;;2.00;1.90;;;12.80;99.90;;;;;;5009027;28;20206;-65
2023/10/25 05:55:16;;;;;;;1.97;1.87;;;12.80;99.90;;;;;;5010484;28;20549;-65
2023/10/25 05:57:45;;;;;;;2.00;1.90;;;12.70;99.90;;;;;;5008552;28;20204;-65
2023/10/25 06:00:15;;;;;;;1.90;1.80;;;12.80;99.90;;;;;;5006799;28;20716;-66
2023/10/25 06:02:44;;;;;;;2.67;2.47;;;12.80;99.90;;;;;;5008205;28;20708;-65
2023/10/25 06:05:13;;;;;;;2.10;2.00;;;12.80;99.90;;;;;;5022735;28;20241;-65
2023/10/25 06:07:41;;;;;;;2.00;1.83;;;12.80;99.90;;;;;;5029615;28;20205;-65
2023/10/25 06:10:12;;;;;;;2.50;2.30;;;12.80;99.90;;;;;;5029109;28;20693;-65
2023/10/25 06:12:40;;;;;;;3.10;2.70;;;12.80;99.90;;;;;;5028784;28;20187;-65
2023/10/25 06:15:08;;;;;;;2.03;1.93;;;12.80;99.90;;;;;;5010321;28;20638;-65
2023/10/25 06:17:37;;;;;;;2.50;2.30;;;12.80;99.90;;;;;;5009396;28;20205;-65
2023/10/25 06:20:05;;;;;;;2.50;2.30;;;12.80;99.90;;;;;;5029752;28;20220;-65
2023/10/25 06:22:32;;;;;;;2.30;2.10;;;12.80;99.90;;;;;;5029220;28;20204;-65
2023/10/25 06:24:59;;;;;;;2.60;2.40;;;12.80;99.90;;;;;;5029132;28;20592;-63
2023/10/25 06:27:26;;;;;;;2.67;2.47;;;12.80;99.90;;;;;;5011447;28;20210;-64
2023/10/25 06:29:53;;;;;;;2.40;2.20;;;13.50;99.90;;;;;;5027430;28;20303;-65
2023/10/25 06:32:20;;;;;;;2.80;2.50;;;12.80;99.90;;;;;;5029102;28;20197;-65
2023/10/25 06:34:49;;;;;;;2.57;2.10;;;12.80;99.90;;;;;;5026140;28;20613;-65
2023/10/25 06:37:17;;;;;;;2.60;2.40;;;12.80;99.90;;;;;;5025764;28;20271;-65
2023/10/25 06:39:44;;;;;;;2.33;2.23;;;12.80;99.90;;;;;;5028062;28;20300;-65
2023/10/25 06:42:13;;;;;;;1.80;1.70;;;12.90;99.90;;;;;;5029709;28;20201;-65
2023/10/25 06:44:41;;;;;;;2.40;2.30;;;12.90;99.90;;;;;;5008249;28;20217;-64
2023/10/25 06:47:10;;;;;;;2.00;1.80;;;12.80;99.90;;;;;;5022056;28;20250;-64
2023/10/25 06:49:40;;;;;;;1.90;1.80;;;12.80;99.90;;;;;;5028887;28;20564;-64
2023/10/25 06:52:12;;;;;;;2.90;1.87;;;12.90;99.90;;;;;;5029184;28;20186;-65
2023/10/25 06:54:40;;;;;;;2.13;2.03;;;12.90;99.90;;;;;;5028462;28;20209;-65
2023/10/25 06:57:08;;;;;;;2.30;2.20;;;12.80;99.90;;;;;;5030120;28;21088;-64
2023/10/25 06:59:37;;;;;;;2.83;2.60;;;12.80;99.90;;;;;;5026616;28;20205;-64
2023/10/25 07:02:20;;;;;;;2.70;2.50;;;12.80;99.90;;;;;;5029096;28;20196;-65
2023/10/25 07:04:51;;;;;;;3.03;2.73;;;12.80;99.90;;;;;;5022677;28;20236;-65
2023/10/25 07:07:23;;;;;;;3.67;3.37;;;12.80;99.90;;;;;;5027142;28;20204;-65
2023/10/25 07:09:50;;;;;;;3.00;2.70;;;12.80;99.90;;;;;;5028639;28;20189;-64
2023/10/25 07:12:19;;;;;;;2.93;2.47;;;12.80;99.90;;;;;;5025440;28;20205;-65
2023/10/25 07:14:46;;;;;;;2.20;2.07;;;12.80;99.90;;;;;;5027153;28;20202;-65
2023/10/25 07:17:13;;;;;;;1.93;1.77;;;12.80;99.90;;;;;;5028989;28;20251;-65
2023/10/25 07:19:43;;;;;;;1.90;1.80;;;12.80;99.90;;;;;;5007748;28;20615;-64
2023/10/25 07:22:10;;;;;;;1.97;1.87;;;12.80;99.90;;;;;;5028264;28;20193;-65
2023/10/25 07:24:39;;;;;;;1.53;1.43;;;12.80;99.90;;;;;;5028486;28;20672;-65
2023/10/25 07:27:06;;;;;;;1.73;1.63;;;12.80;99.90;;;;;;5023539;28;20957;-65
2023/10/25 07:29:36;;;;;;;2.60;2.00;;;12.80;99.90;;;;;;5021328;28;20805;-65
2023/10/25 07:32:03;;;;;;;1.87;1.73;;;12.80;99.90;;;;;;5028300;28;20257;-65
2023/10/25 07:34:33;;;;;;;2.63;2.10;;;12.80;99.90;;;;;;5025675;28;20193;-65
2023/10/25 07:37:00;;;;;;;2.90;2.63;;;12.80;99.90;;;;;;5024925;28;20189;-65
2023/10/25 07:39:29;;;;;;;3.03;2.43;;;12.80;99.90;;;;;;5023197;28;20284;-64
2023/10/25 07:41:58;;;;;;;2.70;2.50;;;12.80;99.90;;;;;;5028746;28;20248;-65
2023/10/25 07:44:25;;;;;;;3.03;2.50;;;12.80;99.90;;;;;;5024297;28;20217;-65
2023/10/25 07:46:52;;;;;;;2.20;2.00;;;12.80;99.90;;;;;;5032381;28;20212;-66
2023/10/25 07:49:19;;;;;;;3.57;2.63;;;12.80;99.90;;;;;;5031012;28;20672;-65
2023/10/25 07:51:46;;;;;;;9.53;4.73;;;12.90;99.90;;;;;;5024240;28;20730;-64
2023/10/25 07:54:16;;;;;;;3.87;3.47;;;12.90;99.90;;;;;;5028275;28;20204;-64
2023/10/25 07:56:44;;;;;;;4.03;3.57;;;12.80;99.90;;;;;;5031672;28;20201;-65
2023/10/25 07:59:12;;;;;;;3.03;2.63;;;12.80;99.90;;;;;;5026243;28;20251;-65
2023/10/25 08:01:40;;;;;;;3.30;2.30;;;12.80;99.90;;;;;;5026204;28;20233;-65
2023/10/25 08:04:07;;;;;;;4.00;2.17;;;12.80;99.90;;;;;;5026464;28;20308;-64
2023/10/25 08:06:36;;;;;;;4.03;2.53;;;12.80;99.90;;;;;;5031331;28;20218;-65
2023/10/25 08:09:04;;;;;;;2.50;2.30;;;12.80;99.90;;;;;;5030324;28;20288;-65
2023/10/25 08:11:35;;;;;;;2.00;1.90;;;12.80;99.90;;;;;;5031459;28;20197;-65
2023/10/25 08:14:02;;;;;;;3.27;2.20;;;12.80;99.90;;;;;;5032644;28;20204;-65
2023/10/25 08:16:30;;;;;;;2.10;2.00;;;12.80;99.90;;;;;;5019774;28;20262;-65
2023/10/25 08:18:58;;;;;;;2.63;2.43;;;12.80;99.90;;;;;;5029345;28;20200;-65
2023/10/25 08:21:25;;;;;;;2.07;1.97;;;12.80;99.90;;;;;;5022881;28;20204;-65
2023/10/25 08:23:52;;;;;;;2.17;2.00;;;12.80;99.90;;;;;;5028852;28;20215;-65
2023/10/25 08:26:21;;;;;;;1.90;1.80;;;12.80;99.90;;;;;;5028723;28;20219;-65
2023/10/25 08:28:48;;;;;;;2.03;1.40;;;13.60;99.90;;;;;;5020000;28;20200;-65
2023/10/25 08:31:17;;;;;;;1.43;1.33;;;12.70;99.90;;;;;;5031327;28;20283;-64
2023/10/25 08:33:46;;;;;;;1.87;1.70;;;12.80;99.90;;;;;;5027896;28;20194;-64
2023/10/25 08:36:13;;;;;;;1.63;1.53;;;12.80;99.90;;;;;;5024775;28;20703;-65
2023/10/25 08:38:40;;;;;;;1.57;1.47;;;12.80;99.90;;;;;;5027902;28;20197;-64
2023/10/25 08:41:08;;;;;;;1.67;1.57;;;12.80;99.90;;;;;;5029370;28;20209;-64
2023/10/25 08:43:36;;;;;;;2.07;1.97;;;12.70;99.90;;;;;;5024654;28;20888;-64
2023/10/25 08:46:04;;;;;;;1.50;1.40;;;12.80;99.90;;;;;;5025484;28;20564;-65
2023/10/25 08:48:32;;;;;;;1.47;1.37;;;12.70;99.90;;;;;;5028818;28;20564;-65
2023/10/25 08:51:01;;;;;;;1.73;1.63;;;12.70;99.90;;;;;;5009698;28;20254;-65
2023/10/25 08:53:29;;;;;;;2.70;2.43;;;12.70;99.90;;;;;;5008028;28;20691;-65
2023/10/25 08:55:58;;;;;;;2.40;1.83;;;12.80;99.90;;;;;;5029763;28;20656;-65
2023/10/25 08:58:26;;;;;;;2.60;1.97;;;12.80;99.90;;;;;;5004957;28;20211;-65
2023/10/25 09:01:02;;;;;;;2.27;2.07;;;12.80;99.90;;;;;;5029350;28;20274;-64
2023/10/25 09:03:43;;;;;;;2.80;2.00;;;12.80;99.90;;;;;;5027873;28;20188;-64
2023/10/25 09:06:22;;;;;;;2.43;1.80;;;12.80;99.90;;;;;;5025018;28;20238;-64
2023/10/25 09:08:59;;;;;;;1.70;1.60;;;12.80;99.90;;;;;;5006425;28;20218;-65
2023/10/25 09:11:26;;;;;;;2.83;2.23;;;12.70;99.90;;;;;;5027711;28;20200;-65
2023/10/25 09:13:58;;;;;;;2.77;2.10;;;12.70;99.90;;;;;;5025164;28;20251;-65
2023/10/25 09:16:27;;;;;;;3.00;2.43;;;12.70;99.90;;;;;;5006104;28;20199;-65
2023/10/25 09:18:54;;;;;;;2.30;2.20;;;12.70;99.90;;;;;;5009775;28;20208;-66
2023/10/25 09:21:28;;;;;;;1.70;1.60;;;12.70;99.90;;;;;;5024738;28;20420;-65
2023/10/25 09:23:59;;;;;;;1.90;1.70;;;12.60;99.90;;;;;;5021212;28;20203;-64
2023/10/25 09:26:32;;;;;;;1.70;1.60;;;12.70;99.90;;;;;;5026934;28;20706;-64
2023/10/25 09:29:00;;;;;;;1.70;1.60;;;12.70;99.90;;;;;;5009075;28;20203;-65
2023/10/25 09:31:29;;;;;;;2.70;2.00;;;12.60;99.90;;;;;;4999872;28;20210;-64
2023/10/25 09:33:58;;;;;;;2.03;1.83;;;12.70;99.90;;;;;;5021398;28;20204;-65
2023/10/25 09:36:27;;;;;;;2.50;1.77;;;12.60;99.90;;;;;;5021131;28;20806;-65
2023/10/25 09:38:55;;;;;;;2.20;1.73;;;12.60;99.90;;;;;;5009652;28;20241;-65
2023/10/25 09:41:23;;;;;;;1.67;1.57;;;12.60;99.90;;;;;;5029097;28;20211;-65
2023/10/25 09:43:51;;;;;;;1.50;1.40;;;12.60;99.90;;;;;;5029098;28;20229;-65
2023/10/25 09:46:19;;;;;;;2.00;1.50;;;12.60;99.90;;;;;;5024272;28;20288;-65
2023/10/25 09:49:00;;;;;;;1.20;1.10;;;12.60;99.90;;;;;;5026497;28;20202;-65
2023/10/25 09:51:39;;;;;;;1.30;1.20;;;12.60;99.90;;;;;;5028326;28;20250;-65
2023/10/25 09:54:11;;;;;;;1.40;1.30;;;12.60;99.90;;;;;;5026956;28;20200;-64
2023/10/25 09:56:39;;;;;;;1.50;1.40;;;12.60;99.90;;;;;;5029575;28;20227;-64
2023/10/25 09:59:10;;;;;;;1.27;1.20;;;12.60;99.90;;;;;;5028926;28;20188;-63
2023/10/25 10:01:39;;;;;;;1.27;1.27;;;12.60;99.90;;;;;;5008849;28;20205;-64
2023/10/25 10:04:15;;;;;;;6.33;3.57;;;12.60;99.90;;;;;;5029392;28;20655;-65
2023/10/25 10:07:00;;;;;;;3.10;2.80;;;12.60;99.90;;;;;;5030839;28;20636;-65
2023/10/25 10:09:34;;;;;;;2.77;2.50;;;12.70;99.90;;;;;;5020442;28;20246;-64
2023/10/25 10:12:05;;;;;;;2.50;2.30;;;12.60;99.90;;;;;;5030034;28;20235;-65
2023/10/25 10:14:33;;;;;;;1.80;1.60;;;12.60;99.90;;;;;;5026132;28;20200;-64
2023/10/25 10:17:05;;;;;;;1.27;1.20;;;12.70;99.90;;;;;;5027086;28;20726;-64
2023/10/25 10:19:31;;;;;;;1.57;1.47;;;12.60;99.90;;;;;;5028737;28;20204;-65
2023/10/25 10:22:07;;;;;;;3.07;1.77;;;12.60;99.90;;;;;;5029711;28;20916;-64
2023/10/25 10:24:45;;;;;;;1.50;1.40;;;12.60;99.90;;;;;;5018356;28;21075;-65
2023/10/25 10:27:16;;;;;;;1.40;1.30;;;12.60;99.90;;;;;;5028037;28;20200;-65
2023/10/25 10:29:45;;;;;;;1.07;1.00;;;12.60;99.90;;;;;;5026879;28;20255;-65
2023/10/25 10:32:13;;;;;;;1.40;1.10;;;12.60;99.90;;;;;;5025231;28;20305;-65
2023/10/25 10:34:45;;;;;;;1.40;1.03;;;12.60;99.90;;;;;;5027636;28;20533;-64
2023/10/25 10:37:16;;;;;;;1.63;0.90;;;12.60;99.90;;;;;;5010545;28;20208;-64
2023/10/25 10:40:14;;;;;;;1.00;1.00;;;12.60;99.90;;;;;;5021907;28;20202;-64
2023/10/25 10:42:44;;;;;;;0.90;0.90;;;12.60;99.90;;;;;;5028620;28;20660;-64
2023/10/25 10:45:15;;;;;;;0.90;0.90;;;12.80;99.90;;;;;;5027794;28;20215;-64
2023/10/25 10:47:43;;;;;;;0.83;0.83;;;12.50;99.90;;;;;;5005938;28;20560;-65
2023/10/25 10:50:12;;;;;;;3.03;1.30;;;12.50;99.90;;;;;;5028214;28;20209;-65
2023/10/25 10:52:42;;;;;;;1.63;1.53;;;12.50;99.90;;;;;;5010278;28;20552;-65
2023/10/25 10:55:13;;;;;;;1.47;1.37;;;12.40;99.90;;;;;;5026376;28;20189;-65
2023/10/25 10:57:40;;;;;;;1.73;1.50;;;12.50;99.90;;;;;;5028914;28;20208;-64
2023/10/25 11:00:10;;;;;;;1.60;1.43;;;12.50;99.90;;;;;;5025877;28;20200;-64
2023/10/25 11:02:37;;;;;;;1.40;1.30;;;12.50;99.90;;;;;;5025534;28;20564;-65
2023/10/25 11:05:05;;;;;;;2.33;1.13;;;12.50;99.90;;;;;;5029192;28;20229;-66
2023/10/25 11:07:32;;;;;;;1.20;1.10;;;12.50;99.90;;;;;;5027963;28;20552;-65
2023/10/25 11:10:01;;;;;;;1.27;1.03;;;12.50;99.90;;;;;;5024565;28;20234;-65
2023/10/25 11:12:28;;;;;;;1.10;1.00;;;12.50;99.90;;;;;;5029168;28;20709;-64
2023/10/25 11:14:55;;;;;;;1.33;0.90;;;12.50;99.90;;;;;;5026555;28;20200;-65
2023/10/25 11:17:22;;;;;;;0.87;0.80;;;12.50;99.90;;;;;;5024564;28;20200;-65
2023/10/25 11:19:49;;;;;;;1.10;1.10;;;12.50;99.90;;;;;;5029333;28;20209;-65
2023/10/25 11:22:16;;;;;;;0.93;0.93;;;12.50;99.90;;;;;;5032984;28;20250;-65
2023/10/25 11:24:47;;;;;;;0.90;0.90;;;12.50;99.90;;;;;;5024236;28;20612;-64
2023/10/25 11:27:16;;;;;;;1.60;0.97;;;12.50;99.90;;;;;;5025628;28;20279;-64
2023/10/25 11:29:44;;;;;;;1.07;0.90;;;12.50;99.90;;;;;;5029413;28;20207;-64
2023/10/25 11:32:14;;;;;;;1.23;0.80;;;12.50;99.90;;;;;;5026306;28;20203;-63
2023/10/25 11:34:42;;;;;;;0.97;0.97;;;12.50;99.90;;;;;;5031104;28;20238;-65
2023/10/25 11:37:11;;;;;;;0.73;0.73;;;12.50;99.90;;;;;;5024954;28;20263;-65
2023/10/25 11:39:58;;;;;;;2.37;1.00;;;12.50;99.90;;;;;;5022292;28;20200;-64
2023/10/25 11:42:30;;;;;;;1.50;1.40;;;12.40;99.90;;;;;;5019563;28;20688;-64
2023/10/25 11:45:00;;;;;;;2.00;1.73;;;12.50;99.90;;;;;;5016467;28;20187;-64
2023/10/25 11:47:28;;;;;;;2.60;2.10;;;12.40;99.90;;;;;;5001755;28;20210;-64
2023/10/25 11:49:57;;;;;;;2.73;1.80;;;12.50;99.90;;;;;;5006011;28;20195;-65
2023/10/25 11:52:25;;;;;;;1.30;1.20;;;12.50;99.90;;;;;;5028562;28;20255;-64
2023/10/25 11:54:56;;;;;;;3.17;1.20;;;12.50;99.90;;;;;;5018502;28;20288;-64
2023/10/25 11:57:24;;;;;;;1.30;1.10;;;12.50;99.90;;;;;;5024264;28;20192;-65
2023/10/25 11:59:52;;;;;;;1.03;1.03;;;12.50;99.90;;;;;;5014688;28;20196;-65
2023/10/25 12:02:24;;;;;;;0.97;0.97;;;12.50;99.90;;;;;;5023961;28;20304;-65
2023/10/25 12:04:52;;;;;;;1.40;0.90;;;12.50;99.90;;;;;;5019741;28;20220;-65
2023/10/25 12:07:21;;;;;;;2.50;1.00;;;12.50;99.90;;;;;;5016870;28;20196;-65
2023/10/25 12:09:48;;;;;;;0.83;0.83;;;12.40;99.90;;;;;;5024710;28;20606;-65
2023/10/25 12:12:15;;;;;;;0.93;0.87;;;12.40;99.90;;;;;;5022970;28;20230;-65
2023/10/25 12:14:42;;;;;;;1.20;1.10;;;12.40;99.90;;;;;;5027724;28;20465;-65
2023/10/25 12:17:11;;;;;;;0.70;0.70;;;12.40;99.90;;;;;;4996904;28;20448;-65
2023/10/25 12:19:39;;;;;;;1.43;1.03;;;12.40;99.90;;;;;;5013960;28;20236;-65
2023/10/25 12:22:08;;;;;;;1.03;0.83;;;12.40;99.90;;;;;;5014510;28;20195;-65
2023/10/25 12:24:36;;;;;;;1.13;0.80;;;12.40;99.90;;;;;;4995209;28;20212;-65
2023/10/25 12:27:04;;;;;;;0.80;0.80;;;12.40;99.90;;;;;;5016575;28;20308;-65
2023/10/25 12:29:32;;;;;;;0.80;0.80;;;12.60;99.90;;;;;;5008570;28;20196;-65
2023/10/25 12:31:59;;;;;;;0.97;0.80;;;12.50;99.90;;;;;;5005397;28;20256;-64
2023/10/25 12:34:28;;;;;;;0.90;0.90;;;12.50;99.90;;;;;;5018964;28;20193;-64
2023/10/25 12:36:55;;;;;;;2.13;1.27;;;12.50;99.90;;;;;;5020214;28;20177;-65
2023/10/25 12:39:26;;;;;;;1.60;1.20;;;12.50;99.90;;;;;;5015277;28;20511;-64
2023/10/25 12:41:53;;;;;;;1.37;1.20;;;12.50;99.90;;;;;;5011168;28;20204;-64
2023/10/25 12:44:21;;;;;;;2.30;1.47;;;12.50;99.90;;;;;;5026430;28;20197;-64
2023/10/25 12:46:48;;;;;;;2.67;1.60;;;12.50;99.90;;;;;;5016507;28;20223;-64
2023/10/25 12:49:18;;;;;;;2.37;1.50;;;12.50;99.90;;;;;;5022522;28;20192;-65
2023/10/25 12:51:48;;;;;;;4.03;2.43;;;12.50;99.90;;;;;;5028655;28;20362;-63
2023/10/25 12:54:15;;;;;;;4.43;2.37;;;12.50;99.90;;;;;;5010898;28;20200;-64